KTIK/TIK METAR and TAF weather

Enter ICAO airport designator
Station Type Date Time Source
KTIK METAR 2020/02/24 07:15 UTC NOAA

KTIK 240715Z AUTO 18015KT 10SM BKN008 BKN015 12/12 A2958 RMK AO2 SLP022


Station Type Date Time Source
KTIK Decoded METAR 2020/02/24 07:15 UTC NOAA

Tinker Air Force Base, OK, United States (KTIK) 35-25N 097-23W 397M
Feb 24, 2020 - 02:15 AM EST / 2020.02.24 0715 UTC
Wind: from the S (180 degrees) at 17 MPH (15 KT):0
Visibility: 10 mile(s):0
Sky conditions: mostly cloudy
Temperature: 53 F (12 C)
Dew Point: 53 F (12 C)
Relative Humidity: 100%
Pressure (altimeter): 29.58 in. Hg (1001 hPa)
ob: KTIK 240715Z AUTO 18015KT 10SM BKN008 BKN015 12/12 A2958 RMK AO2 SLP022
cycle: 7

Station Type Date Time Source
KTIK TAF 2020/02/24 04:54 UTC NOAA

TAF
AMD KTIK 240434Z 2404/2508 18012G18KT 9999 OVC008 510103 QNH2962INS
BECMG 2411/2412 28020G25KT 9000 -SHRA OVC015 QNH2957INS
BECMG 2420/2421 32020G30KT 9999 NSW BKN015 510003 QNH2975INS
BECMG 2423/2424 33012KT 9999 BKN020 510033 QNH2982INS
BECMG 2501/2502 33009KT 9999 BKN030 QNH2985INS TX12/2404Z TN05/2414Z

Example: see airport list